Brandt, South Dakota
Current Conditions -  °F | °C
As of 7:34 AM on Thursday 30 Oct 2014 (Local Time) from KCNB Reporting Station
Scattered Clouds Scattered Clouds  
Wind Chill: 36°   Ceiling: Unl
Heat Index: 36°   Visibility: 10mi
Dew Point: 35°   Wind: 0mph
Humidity: 96%   Direction: NA
Pressure: 30.02"   Gusts: NA
Location:  44.66°N, 96.62°W
Report Text: KCNB 301234Z AUTO 00000KT 10SM SCT110 02/02 A3002 RMK AO2 T00210015
Loading
Personal Weather Stations






























Interactive Weather Map
Tropical Storm Tracking
New forecast layout! Learn more

10-Day Weather Forecast

Advertisements
Track Severe Weather on mobile